sensor_id;sensor_type;location;lat;lon;timestamp;pressure;altitude;pressure_sealevel;temperature;humidity
48926;BME280;39838;59.938;30.642;2023-04-29T00:01:23;100492.88;;;4.20;63.26
48926;BME280;39838;59.938;30.642;2023-04-29T00:03:50;100491.22;;;4.20;62.94
48926;BME280;39838;59.938;30.642;2023-04-29T00:06:17;100494.53;;;4.16;63.17
48926;BME280;39838;59.938;30.642;2023-04-29T00:08:46;100493.63;;;4.14;63.72
48926;BME280;39838;59.938;30.642;2023-04-29T00:11:13;100494.38;;;4.11;63.82
48926;BME280;39838;59.938;30.642;2023-04-29T00:13:40;100497.00;;;4.13;64.45
48926;BME280;39838;59.938;30.642;2023-04-29T00:16:07;100496.25;;;4.17;63.82
48926;BME280;39838;59.938;30.642;2023-04-29T00:18:35;100493.00;;;4.24;64.13
48926;BME280;39838;59.938;30.642;2023-04-29T00:21:03;100503.44;;;4.30;64.38
48926;BME280;39838;59.938;30.642;2023-04-29T00:23:31;100482.56;;;4.18;64.22
48926;BME280;39838;59.938;30.642;2023-04-29T00:26:00;100503.47;;;4.32;65.25
48926;BME280;39838;59.938;30.642;2023-04-29T00:28:27;100496.72;;;4.35;65.50
48926;BME280;39838;59.938;30.642;2023-04-29T00:30:55;100501.22;;;4.44;65.38
48926;BME280;39838;59.938;30.642;2023-04-29T00:33:22;100503.38;;;4.62;65.24
48926;BME280;39838;59.938;30.642;2023-04-29T00:35:49;100491.63;;;4.73;64.87
48926;BME280;39838;59.938;30.642;2023-04-29T00:38:17;100497.09;;;4.87;65.60
48926;BME280;39838;59.938;30.642;2023-04-29T00:40:45;100490.38;;;4.93;64.82
48926;BME280;39838;59.938;30.642;2023-04-29T00:43:14;100495.75;;;5.03;65.49
48926;BME280;39838;59.938;30.642;2023-04-29T00:45:41;100489.06;;;5.12;65.24
48926;BME280;39838;59.938;30.642;2023-04-29T00:48:09;100494.44;;;5.22;64.85
48926;BME280;39838;59.938;30.642;2023-04-29T00:50:36;100488.53;;;5.27;64.58
48926;BME280;39838;59.938;30.642;2023-04-29T00:53:03;100491.19;;;5.30;64.70
48926;BME280;39838;59.938;30.642;2023-04-29T00:55:32;100488.66;;;5.33;64.67
48926;BME280;39838;59.938;30.642;2023-04-29T00:57:59;100491.34;;;5.38;64.43
48926;BME280;39838;59.938;30.642;2023-04-29T01:00:29;100486.22;;;5.39;64.28
48926;BME280;39838;59.938;30.642;2023-04-29T01:02:57;100486.19;;;5.38;63.57
48926;BME280;39838;59.938;30.642;2023-04-29T01:05:24;100484.38;;;5.34;64.21
48926;BME280;39838;59.938;30.642;2023-04-29T01:08:06;100480.81;;;5.27;64.20
48926;BME280;39838;59.938;30.642;2023-04-29T01:10:43;100453.63;;;5.01;64.22
48926;BME280;39838;59.938;30.642;2023-04-29T01:13:15;100452.72;;;4.99;64.51
48926;BME280;39838;59.938;30.642;2023-04-29T01:15:48;100493.22;;;5.06;64.31
48926;BME280;39838;59.938;30.642;2023-04-29T01:18:19;100489.44;;;4.90;62.38
48926;BME280;39838;59.938;30.642;2023-04-29T01:20:48;100492.69;;;4.81;64.61
48926;BME280;39838;59.938;30.642;2023-04-29T01:23:15;100481.25;;;4.69;64.68
48926;BME280;39838;59.938;30.642;2023-04-29T01:25:44;100489.56;;;4.58;65.82
48926;BME280;39838;59.938;30.642;2023-04-29T01:28:17;100477.13;;;4.41;66.43
48926;BME280;39838;59.938;30.642;2023-04-29T01:30:51;100482.88;;;4.30;66.22
48926;BME280;39838;59.938;30.642;2023-04-29T01:33:25;100483.75;;;4.31;66.58
48926;BME280;39838;59.938;30.642;2023-04-29T01:36:07;100473.09;;;4.17;66.82
48926;BME280;39838;59.938;30.642;2023-04-29T01:38:41;100479.94;;;4.15;66.80
48926;BME280;39838;59.938;30.642;2023-04-29T01:41:14;100477.94;;;4.05;67.17
48926;BME280;39838;59.938;30.642;2023-04-29T01:43:46;100478.59;;;3.98;67.75
48926;BME280;39838;59.938;30.642;2023-04-29T01:46:16;100486.44;;;4.02;67.64
48926;BME280;39838;59.938;30.642;2023-04-29T01:48:44;100492.47;;;4.03;67.82
48926;BME280;39838;59.938;30.642;2023-04-29T01:51:11;100490.47;;;3.93;67.99
48926;BME280;39838;59.938;30.642;2023-04-29T01:53:38;100483.41;;;3.86;68.04
48926;BME280;39838;59.938;30.642;2023-04-29T01:56:06;100485.78;;;3.78;68.15
48926;BME280;39838;59.938;30.642;2023-04-29T01:58:35;100479.44;;;3.65;68.52
48926;BME280;39838;59.938;30.642;2023-04-29T02:01:02;100478.38;;;3.57;68.53
48926;BME280;39838;59.938;30.642;2023-04-29T02:03:29;100476.59;;;3.54;68.98
48926;BME280;39838;59.938;30.642;2023-04-29T02:05:56;100488.47;;;3.51;69.05
48926;BME280;39838;59.938;30.642;2023-04-29T02:08:24;100484.16;;;3.50;69.30
48926;BME280;39838;59.938;30.642;2023-04-29T02:10:52;100477.25;;;3.47;69.52
48926;BME280;39838;59.938;30.642;2023-04-29T02:13:19;100481.56;;;3.48;69.40
48926;BME280;39838;59.938;30.642;2023-04-29T02:15:48;100484.25;;;3.53;69.31
48926;BME280;39838;59.938;30.642;2023-04-29T02:18:15;100477.47;;;3.55;69.31
48926;BME280;39838;59.938;30.642;2023-04-29T02:20:43;100472.22;;;3.52;69.49
48926;BME280;39838;59.938;30.642;2023-04-29T02:23:10;100480.06;;;3.56;69.45
48926;BME280;39838;59.938;30.642;2023-04-29T02:25:38;100476.72;;;3.59;69.48
48926;BME280;39838;59.938;30.642;2023-04-29T02:28:05;100478.47;;;3.60;69.73
48926;BME280;39838;59.938;30.642;2023-04-29T02:30:32;100476.63;;;3.56;69.78
48926;BME280;39838;59.938;30.642;2023-04-29T02:33:01;100475.81;;;3.59;69.75
48926;BME280;39838;59.938;30.642;2023-04-29T02:35:28;100477.53;;;3.58;70.17
48926;BME280;39838;59.938;30.642;2023-04-29T02:37:55;100479.28;;;3.59;70.48
48926;BME280;39838;59.938;30.642;2023-04-29T02:40:22;100482.78;;;3.61;69.79
48926;BME280;39838;59.938;30.642;2023-04-29T02:42:51;100487.22;;;3.67;70.07
48926;BME280;39838;59.938;30.642;2023-04-29T02:45:18;100481.47;;;3.77;69.75
48926;BME280;39838;59.938;30.642;2023-04-29T02:47:46;100480.78;;;3.82;70.19
48926;BME280;39838;59.938;30.642;2023-04-29T02:50:14;100479.28;;;3.91;70.16
48926;BME280;39838;59.938;30.642;2023-04-29T02:52:42;100483.59;;;3.92;70.30
48926;BME280;39838;59.938;30.642;2023-04-29T02:55:09;100486.22;;;3.93;70.45
48926;BME280;39838;59.938;30.642;2023-04-29T02:57:36;100492.22;;;3.94;70.72
48926;BME280;39838;59.938;30.642;2023-04-29T03:00:04;100491.38;;;3.95;70.35
48926;BME280;39838;59.938;30.642;2023-04-29T03:02:32;100492.41;;;4.00;70.37
48926;BME280;39838;59.938;30.642;2023-04-29T03:05:00;100491.84;;;4.13;70.72
48926;BME280;39838;59.938;30.642;2023-04-29T03:07:28;100491.34;;;4.26;70.23
48926;BME280;39838;59.938;30.642;2023-04-29T03:09:55;100488.19;;;4.36;71.03
48926;BME280;39838;59.938;30.642;2023-04-29T03:12:23;100493.72;;;4.53;69.90
48926;BME280;39838;59.938;30.642;2023-04-29T03:14:50;100492.16;;;4.60;70.33
48926;BME280;39838;59.938;30.642;2023-04-29T03:17:17;100487.97;;;4.63;70.15
48926;BME280;39838;59.938;30.642;2023-04-29T03:19:44;100490.59;;;4.66;70.04
48926;BME280;39838;59.938;30.642;2023-04-29T03:22:11;100486.47;;;4.73;69.47
48926;BME280;39838;59.938;30.642;2023-04-29T03:24:40;100485.88;;;4.83;69.55
48926;BME280;39838;59.938;30.642;2023-04-29T03:27:07;100487.66;;;4.87;69.29
48926;BME280;39838;59.938;30.642;2023-04-29T03:29:34;100486.84;;;4.88;69.45
48926;BME280;39838;59.938;30.642;2023-04-29T03:32:02;100488.56;;;4.88;69.17
48926;BME280;39838;59.938;30.642;2023-04-29T03:34:29;100487.53;;;4.81;69.16
48926;BME280;39838;59.938;30.642;2023-04-29T03:36:57;100482.31;;;4.78;69.33
48926;BME280;39838;59.938;30.642;2023-04-29T03:39:24;100481.47;;;4.79;69.84
48926;BME280;39838;59.938;30.642;2023-04-29T03:41:54;100480.75;;;4.85;69.55
48926;BME280;39838;59.938;30.642;2023-04-29T03:44:21;100489.47;;;4.91;69.91
48926;BME280;39838;59.938;30.642;2023-04-29T03:46:48;100493.16;;;5.03;69.63
48926;BME280;39838;59.938;30.642;2023-04-29T03:49:15;100496.63;;;5.05;69.03
48926;BME280;39838;59.938;30.642;2023-04-29T03:51:42;100499.41;;;5.14;69.71
48926;BME280;39838;59.938;30.642;2023-04-29T03:54:11;100490.88;;;5.15;69.63
48926;BME280;39838;59.938;30.642;2023-04-29T03:56:38;100497.75;;;5.16;69.72
48926;BME280;39838;59.938;30.642;2023-04-29T03:59:07;100494.44;;;5.22;69.90
48926;BME280;39838;59.938;30.642;2023-04-29T04:01:34;100491.25;;;5.33;69.15
48926;BME280;39838;59.938;30.642;2023-04-29T04:04:01;100493.25;;;5.48;69.14
48926;BME280;39838;59.938;30.642;2023-04-29T04:06:28;100482.22;;;5.54;68.39
48926;BME280;39838;59.938;30.642;2023-04-29T04:08:56;100487.56;;;5.63;67.98
48926;BME280;39838;59.938;30.642;2023-04-29T04:11:23;100480.88;;;5.74;67.87
48926;BME280;39838;59.938;30.642;2023-04-29T04:13:50;100486.16;;;5.80;67.65
48926;BME280;39838;59.938;30.642;2023-04-29T04:16:18;100485.31;;;5.80;67.67
48926;BME280;39838;59.938;30.642;2023-04-29T04:18:46;100480.97;;;5.77;67.74
48926;BME280;39838;59.938;30.642;2023-04-29T04:21:13;100485.25;;;5.77;67.38
48926;BME280;39838;59.938;30.642;2023-04-29T04:23:40;100475.84;;;5.80;66.52
48926;BME280;39838;59.938;30.642;2023-04-29T04:26:08;100474.88;;;5.75;67.00
48926;BME280;39838;59.938;30.642;2023-04-29T04:28:35;100472.97;;;5.63;66.85
48926;BME280;39838;59.938;30.642;2023-04-29T04:31:03;100479.91;;;5.67;66.77
48926;BME280;39838;59.938;30.642;2023-04-29T04:33:32;100472.84;;;5.57;67.04
48926;BME280;39838;59.938;30.642;2023-04-29T04:35:59;100485.63;;;5.53;67.35
48926;BME280;39838;59.938;30.642;2023-04-29T04:38:27;100482.34;;;5.61;67.91
48926;BME280;39838;59.938;30.642;2023-04-29T04:40:54;100486.00;;;5.71;68.37
48926;BME280;39838;59.938;30.642;2023-04-29T04:43:21;100485.38;;;5.83;67.91
48926;BME280;39838;59.938;30.642;2023-04-29T04:45:48;100485.31;;;5.81;67.88
48926;BME280;39838;59.938;30.642;2023-04-29T04:48:15;100481.09;;;5.83;67.20
48926;BME280;39838;59.938;30.642;2023-04-29T04:50:44;100475.94;;;5.83;66.15
48926;BME280;39838;59.938;30.642;2023-04-29T04:53:11;100488.09;;;5.90;65.74
48926;BME280;39838;59.938;30.642;2023-04-29T04:55:38;100481.19;;;5.89;66.19
48926;BME280;39838;59.938;30.642;2023-04-29T04:58:06;100479.53;;;5.91;66.09
48926;BME280;39838;59.938;30.642;2023-04-29T05:00:33;100485.44;;;5.87;66.23
48926;BME280;39838;59.938;30.642;2023-04-29T05:03:00;100479.59;;;5.96;66.47
48926;BME280;39838;59.938;30.642;2023-04-29T05:05:27;100486.66;;;6.03;65.74
48926;BME280;39838;59.938;30.642;2023-04-29T05:07:55;100482.31;;;6.02;65.52
48926;BME280;39838;59.938;30.642;2023-04-29T05:10:23;100486.72;;;6.09;65.13
48926;BME280;39838;59.938;30.642;2023-04-29T05:12:51;100490.97;;;6.06;64.53
48926;BME280;39838;59.938;30.642;2023-04-29T05:15:18;100485.72;;;5.99;64.17
48926;BME280;39838;59.938;30.642;2023-04-29T05:17:45;100484.88;;;6.00;64.30
48926;BME280;39838;59.938;30.642;2023-04-29T05:20:13;100484.94;;;6.04;64.33
48926;BME280;39838;59.938;30.642;2023-04-29T05:22:40;100480.69;;;6.09;64.11
48926;BME280;39838;59.938;30.642;2023-04-29T05:25:09;100485.13;;;6.16;63.85
48926;BME280;39838;59.938;30.642;2023-04-29T05:27:36;100490.47;;;6.25;63.38
48926;BME280;39838;59.938;30.642;2023-04-29T05:30:04;100487.16;;;6.32;63.40
48926;BME280;39838;59.938;30.642;2023-04-29T05:32:32;100479.41;;;6.34;63.08
48926;BME280;39838;59.938;30.642;2023-04-29T05:34:59;100487.28;;;6.40;62.45
48926;BME280;39838;59.938;30.642;2023-04-29T05:37:26;100487.50;;;6.53;62.25
48926;BME280;39838;59.938;30.642;2023-04-29T05:39:56;100491.03;;;6.60;62.05
48926;BME280;39838;59.938;30.642;2023-04-29T05:42:25;100486.72;;;6.59;61.36
48926;BME280;39838;59.938;30.642;2023-04-29T05:44:52;100484.81;;;6.47;60.88
48926;BME280;39838;59.938;30.642;2023-04-29T05:47:19;100493.28;;;6.39;60.15
48926;BME280;39838;59.938;30.642;2023-04-29T05:49:47;100488.88;;;6.33;60.61
48926;BME280;39838;59.938;30.642;2023-04-29T05:52:14;100475.13;;;6.33;60.44
48926;BME280;39838;59.938;30.642;2023-04-29T05:54:41;100481.41;;;6.50;60.83
48926;BME280;39838;59.938;30.642;2023-04-29T05:57:08;100480.53;;;6.49;60.34
48926;BME280;39838;59.938;30.642;2023-04-29T05:59:37;100483.13;;;6.49;60.25
48926;BME280;39838;59.938;30.642;2023-04-29T06:02:04;100491.06;;;6.62;60.39
48926;BME280;39838;59.938;30.642;2023-04-29T06:04:32;100478.16;;;6.62;59.64
48926;BME280;39838;59.938;30.642;2023-04-29T06:06:59;100489.41;;;6.65;59.87
48926;BME280;39838;59.938;30.642;2023-04-29T06:09:26;100487.78;;;6.72;59.55
48926;BME280;39838;59.938;30.642;2023-04-29T06:11:53;100488.69;;;6.74;59.51
48926;BME280;39838;59.938;30.642;2023-04-29T06:14:20;100492.13;;;6.76;58.93
48926;BME280;39838;59.938;30.642;2023-04-29T06:16:49;100487.94;;;6.82;58.85
48926;BME280;39838;59.938;30.642;2023-04-29T06:19:16;100494.16;;;6.95;58.24
48926;BME280;39838;59.938;30.642;2023-04-29T06:21:43;100496.94;;;7.10;58.61
48926;BME280;39838;59.938;30.642;2023-04-29T06:24:11;100485.06;;;7.22;57.80
48926;BME280;39838;59.938;30.642;2023-04-29T06:26:38;100496.13;;;7.13;58.11
48926;BME280;39838;59.938;30.642;2023-04-29T06:29:05;100497.69;;;7.02;57.21
48926;BME280;39838;59.938;30.642;2023-04-29T06:31:32;100496.75;;;6.97;57.93
48926;BME280;39838;59.938;30.642;2023-04-29T06:34:01;100495.84;;;6.92;57.49
48926;BME280;39838;59.938;30.642;2023-04-29T06:36:28;100494.81;;;6.80;57.97
48926;BME280;39838;59.938;30.642;2023-04-29T06:38:56;100496.53;;;6.81;58.06
48926;BME280;39838;59.938;30.642;2023-04-29T06:41:24;100504.25;;;6.80;58.42
48926;BME280;39838;59.938;30.642;2023-04-29T06:43:52;100499.09;;;6.78;58.33
48926;BME280;39838;59.938;30.642;2023-04-29T06:46:19;100498.06;;;6.69;58.97
48926;BME280;39838;59.938;30.642;2023-04-29T06:48:46;100498.97;;;6.71;59.34
48926;BME280;39838;59.938;30.642;2023-04-29T06:51:15;100489.28;;;6.57;58.71
48926;BME280;39838;59.938;30.642;2023-04-29T06:53:42;100504.69;;;6.51;59.14
48926;BME280;39838;59.938;30.642;2023-04-29T06:56:10;100507.13;;;6.44;59.41
48926;BME280;39838;59.938;30.642;2023-04-29T06:58:37;100514.06;;;6.46;59.65
48926;BME280;39838;59.938;30.642;2023-04-29T07:01:04;100499.53;;;6.53;59.49
48926;BME280;39838;59.938;30.642;2023-04-29T07:03:33;100498.91;;;6.68;59.59
48926;BME280;39838;59.938;30.642;2023-04-29T07:06:00;100507.69;;;6.79;58.89
48926;BME280;39838;59.938;30.642;2023-04-29T07:08:28;100506.94;;;6.86;58.41
48926;BME280;39838;59.938;30.642;2023-04-29T07:10:57;100509.53;;;6.86;58.54
48926;BME280;39838;59.938;30.642;2023-04-29T07:13:24;100519.00;;;6.87;58.56
48926;BME280;39838;59.938;30.642;2023-04-29T07:15:51;100496.59;;;6.84;58.24
48926;BME280;39838;59.938;30.642;2023-04-29T07:18:18;100502.44;;;6.74;58.00
48926;BME280;39838;59.938;30.642;2023-04-29T07:20:46;100521.06;;;6.55;58.53
48926;BME280;39838;59.938;30.642;2023-04-29T07:23:14;100521.91;;;6.54;58.80
48926;BME280;39838;59.938;30.642;2023-04-29T07:25:42;100518.50;;;6.55;58.55
48926;BME280;39838;59.938;30.642;2023-04-29T07:28:10;100527.31;;;6.68;58.18
48926;BME280;39838;59.938;30.642;2023-04-29T07:30:37;100517.97;;;6.76;57.99
48926;BME280;39838;59.938;30.642;2023-04-29T07:33:04;100502.44;;;6.74;57.92
48926;BME280;39838;59.938;30.642;2023-04-29T07:35:31;100519.28;;;7.05;57.70
48926;BME280;39838;59.938;30.642;2023-04-29T07:37:58;100517.78;;;7.23;55.83
48926;BME280;39838;59.938;30.642;2023-04-29T07:40:26;100529.09;;;7.31;55.21
48926;BME280;39838;59.938;30.642;2023-04-29T07:42:54;100524.88;;;7.36;54.64
48926;BME280;39838;59.938;30.642;2023-04-29T07:45:21;100527.44;;;7.33;54.71
48926;BME280;39838;59.938;30.642;2023-04-29T07:47:49;100523.88;;;7.25;54.44
48926;BME280;39838;59.938;30.642;2023-04-29T07:50:16;100527.25;;;7.21;54.44
48926;BME280;39838;59.938;30.642;2023-04-29T07:52:43;100517.63;;;7.10;54.86
48926;BME280;39838;59.938;30.642;2023-04-29T07:55:10;100520.38;;;7.23;55.65
48926;BME280;39838;59.938;30.642;2023-04-29T07:57:37;100526.66;;;7.40;55.03
48926;BME280;39838;59.938;30.642;2023-04-29T08:00:07;100535.38;;;7.47;55.01
48926;BME280;39838;59.938;30.642;2023-04-29T08:02:35;100539.09;;;7.69;54.91
48926;BME280;39838;59.938;30.642;2023-04-29T08:05:02;100534.06;;;7.81;54.36
48926;BME280;39838;59.938;30.642;2023-04-29T08:07:29;100529.97;;;8.00;54.35
48926;BME280;39838;59.938;30.642;2023-04-29T08:09:57;100538.78;;;8.18;55.37
48926;BME280;39838;59.938;30.642;2023-04-29T08:12:24;100536.25;;;8.25;53.97
48926;BME280;39838;59.938;30.642;2023-04-29T08:14:51;100525.75;;;8.09;53.42
48926;BME280;39838;59.938;30.642;2023-04-29T08:17:19;100517.84;;;7.97;53.58
48926;BME280;39838;59.938;30.642;2023-04-29T08:19:47;100547.78;;;7.77;52.88
48926;BME280;39838;59.938;30.642;2023-04-29T08:22:14;100539.72;;;7.51;53.33
48926;BME280;39838;59.938;30.642;2023-04-29T08:24:41;100535.19;;;7.33;52.99
48926;BME280;39838;59.938;30.642;2023-04-29T08:27:09;100542.00;;;7.28;53.04
48926;BME280;39838;59.938;30.642;2023-04-29T08:29:36;100539.44;;;7.29;52.61
48926;BME280;39838;59.938;30.642;2023-04-29T08:32:04;100556.72;;;7.33;53.13
48926;BME280;39838;59.938;30.642;2023-04-29T08:34:32;100540.25;;;7.25;52.52
48926;BME280;39838;59.938;30.642;2023-04-29T08:37:01;100550.63;;;7.28;52.73
48926;BME280;39838;59.938;30.642;2023-04-29T08:39:29;100570.50;;;7.32;52.62
48926;BME280;39838;59.938;30.642;2023-04-29T08:41:56;100579.22;;;7.41;52.33
48926;BME280;39838;59.938;30.642;2023-04-29T08:44:24;100576.75;;;7.50;54.04
48926;BME280;39838;59.938;30.642;2023-04-29T08:46:52;100605.81;;;7.32;56.03
48926;BME280;39838;59.938;30.642;2023-04-29T08:49:20;100596.59;;;6.93;57.65
48926;BME280;39838;59.938;30.642;2023-04-29T08:51:49;100602.19;;;6.68;58.93
48926;BME280;39838;59.938;30.642;2023-04-29T08:54:17;100614.69;;;6.45;59.66
48926;BME280;39838;59.938;30.642;2023-04-29T08:56:45;100616.03;;;6.24;59.95
48926;BME280;39838;59.938;30.642;2023-04-29T08:59:13;100632.75;;;6.02;60.27
48926;BME280;39838;59.938;30.642;2023-04-29T09:01:42;100624.50;;;5.78;61.53
48926;BME280;39838;59.938;30.642;2023-04-29T09:04:14;100617.53;;;5.74;61.81
48926;BME280;39838;59.938;30.642;2023-04-29T09:06:45;100622.66;;;5.72;62.67
48926;BME280;39838;59.938;30.642;2023-04-29T09:09:14;100623.66;;;5.79;62.72
48926;BME280;39838;59.938;30.642;2023-04-29T09:11:42;100619.06;;;6.04;63.64
48926;BME280;39838;59.938;30.642;2023-04-29T09:14:09;100615.31;;;6.33;63.24
48926;BME280;39838;59.938;30.642;2023-04-29T09:16:36;100613.88;;;6.49;61.94
48926;BME280;39838;59.938;30.642;2023-04-29T09:19:03;100613.81;;;6.44;61.86
48926;BME280;39838;59.938;30.642;2023-04-29T09:21:30;100612.91;;;6.42;62.29
48926;BME280;39838;59.938;30.642;2023-04-29T09:23:58;100618.13;;;6.45;62.51
48926;BME280;39838;59.938;30.642;2023-04-29T09:26:35;100613.13;;;6.53;62.29
48926;BME280;39838;59.938;30.642;2023-04-29T09:29:07;100611.66;;;6.69;61.85
48926;BME280;39838;59.938;30.642;2023-04-29T09:31:37;100621.69;;;7.00;61.93
48926;BME280;39838;59.938;30.642;2023-04-29T09:34:04;100618.75;;;7.32;60.99
48926;BME280;39838;59.938;30.642;2023-04-29T09:36:40;100622.50;;;7.55;60.41
48926;BME280;39838;59.938;30.642;2023-04-29T09:39:11;100614.84;;;7.63;59.57
48926;BME280;39838;59.938;30.642;2023-04-29T09:41:42;100629.22;;;7.44;58.81
48926;BME280;39838;59.938;30.642;2023-04-29T09:44:24;100639.13;;;7.14;59.29
48926;BME280;39838;59.938;30.642;2023-04-29T09:46:54;100639.66;;;6.96;60.50
48926;BME280;39838;59.938;30.642;2023-04-29T09:49:22;100646.28;;;6.80;62.20
48926;BME280;39838;59.938;30.642;2023-04-29T09:51:54;100656.53;;;6.75;61.67
48926;BME280;39838;59.938;30.642;2023-04-29T09:54:22;100659.97;;;6.74;61.85
48926;BME280;39838;59.938;30.642;2023-04-29T09:56:52;100654.66;;;6.67;62.45
48926;BME280;39838;59.938;30.642;2023-04-29T09:59:19;100661.72;;;6.77;63.14
48926;BME280;39838;59.938;30.642;2023-04-29T10:01:48;100648.97;;;6.84;63.24
48926;BME280;39838;59.938;30.642;2023-04-29T10:04:17;100650.22;;;7.08;62.80
48926;BME280;39838;59.938;30.642;2023-04-29T10:06:47;100654.16;;;7.39;62.63
48926;BME280;39838;59.938;30.642;2023-04-29T10:09:17;100629.22;;;7.44;62.51
48926;BME280;39838;59.938;30.642;2023-04-29T10:11:45;100656.66;;;7.93;61.46
48926;BME280;39838;59.938;30.642;2023-04-29T10:14:14;100649.97;;;8.12;60.56
48926;BME280;39838;59.938;30.642;2023-04-29T10:16:46;100651.09;;;8.33;58.78
48926;BME280;39838;59.938;30.642;2023-04-29T10:19:18;100632.88;;;8.24;58.10
48926;BME280;39838;59.938;30.642;2023-04-29T10:21:52;100642.72;;;8.52;56.66
48926;BME280;39838;59.938;30.642;2023-04-29T10:24:21;100670.25;;;8.44;57.25
48926;BME280;39838;59.938;30.642;2023-04-29T10:26:50;100664.88;;;8.29;56.08
48926;BME280;39838;59.938;30.642;2023-04-29T10:29:20;100676.88;;;8.22;57.72
48926;BME280;39838;59.938;30.642;2023-04-29T10:31:48;100676.09;;;8.31;57.65
48926;BME280;39838;59.938;30.642;2023-04-29T10:34:16;100674.63;;;8.48;57.57
48926;BME280;39838;59.938;30.642;2023-04-29T10:36:44;100668.00;;;8.74;57.06
48926;BME280;39838;59.938;30.642;2023-04-29T10:39:20;100675.03;;;8.89;56.93
48926;BME280;39838;59.938;30.642;2023-04-29T10:41:50;100684.63;;;8.99;55.16
48926;BME280;39838;59.938;30.642;2023-04-29T10:44:19;100680.16;;;8.82;55.16
48926;BME280;39838;59.938;30.642;2023-04-29T10:46:47;100680.22;;;8.91;55.10
48926;BME280;39838;59.938;30.642;2023-04-29T10:49:14;100689.75;;;8.93;54.10
48926;BME280;39838;59.938;30.642;2023-04-29T10:51:43;100674.13;;;8.86;52.66
48926;BME280;39838;59.938;30.642;2023-04-29T10:54:12;100693.78;;;8.64;52.99
48926;BME280;39838;59.938;30.642;2023-04-29T10:56:41;100683.13;;;8.39;54.04
48926;BME280;39838;59.938;30.642;2023-04-29T10:59:10;100677.16;;;8.45;53.82
48926;BME280;39838;59.938;30.642;2023-04-29T11:01:45;100699.81;;;8.61;52.84
48926;BME280;39838;59.938;30.642;2023-04-29T11:04:13;100684.06;;;8.44;52.75
48926;BME280;39838;59.938;30.642;2023-04-29T11:06:45;100682.03;;;8.20;52.23
48926;BME280;39838;59.938;30.642;2023-04-29T11:09:19;100686.97;;;8.02;52.50
48926;BME280;39838;59.938;30.642;2023-04-29T11:12:00;100689.34;;;7.87;53.12
48926;BME280;39838;59.938;30.642;2023-04-29T11:14:31;100697.25;;;7.99;53.32
48926;BME280;39838;59.938;30.642;2023-04-29T11:17:01;100699.22;;;8.15;53.46
48926;BME280;39838;59.938;30.642;2023-04-29T11:19:32;100688.28;;;8.36;53.29
48926;BME280;39838;59.938;30.642;2023-04-29T11:22:24;100699.03;;;8.71;51.32
48926;BME280;39838;59.938;30.642;2023-04-29T11:24:53;100684.34;;;8.69;51.74
48926;BME280;39838;59.938;30.642;2023-04-29T11:27:22;100683.50;;;8.73;50.59
48926;BME280;39838;59.938;30.642;2023-04-29T11:29:51;100702.50;;;8.72;50.69
48926;BME280;39838;59.938;30.642;2023-04-29T11:32:24;100685.22;;;8.72;50.85
48926;BME280;39838;59.938;30.642;2023-04-29T11:34:52;100682.69;;;8.77;50.31
48926;BME280;39838;59.938;30.642;2023-04-29T11:37:20;100678.44;;;8.84;50.31
48926;BME280;39838;59.938;30.642;2023-04-29T11:39:48;100696.78;;;9.03;50.71
48926;BME280;39838;59.938;30.642;2023-04-29T11:42:19;100714.03;;;9.01;50.68
48926;BME280;39838;59.938;30.642;2023-04-29T11:44:50;100720.09;;;9.05;49.56
48926;BME280;39838;59.938;30.642;2023-04-29T11:47:18;100720.91;;;8.98;48.94
48926;BME280;39838;59.938;30.642;2023-04-29T11:49:47;100713.88;;;8.86;49.81
48926;BME280;39838;59.938;30.642;2023-04-29T11:52:14;100712.94;;;8.80;49.51
48926;BME280;39838;59.938;30.642;2023-04-29T11:54:42;100705.88;;;8.65;49.26
48926;BME280;39838;59.938;30.642;2023-04-29T11:57:09;100690.25;;;8.57;49.62
48926;BME280;39838;59.938;30.642;2023-04-29T11:59:37;100712.69;;;8.58;50.17
48926;BME280;39838;59.938;30.642;2023-04-29T12:02:05;100712.59;;;8.47;49.69
48926;BME280;39838;59.938;30.642;2023-04-29T12:04:33;100714.25;;;8.41;49.68
48926;BME280;39838;59.938;30.642;2023-04-29T12:07:02;100713.22;;;8.33;50.03
48926;BME280;39838;59.938;30.642;2023-04-29T12:09:40;100712.34;;;8.32;50.46
48926;BME280;39838;59.938;30.642;2023-04-29T12:12:07;100710.09;;;8.57;50.37
48926;BME280;39838;59.938;30.642;2023-04-29T12:14:35;100725.00;;;8.79;49.99
48926;BME280;39838;59.938;30.642;2023-04-29T12:17:02;100712.25;;;8.97;50.57
48926;BME280;39838;59.938;30.642;2023-04-29T12:19:30;100713.31;;;9.15;50.43
48926;BME280;39838;59.938;30.642;2023-04-29T12:21:58;100727.81;;;8.99;50.46
48926;BME280;39838;59.938;30.642;2023-04-29T12:24:26;100716.66;;;9.08;50.43
48926;BME280;39838;59.938;30.642;2023-04-29T12:26:54;100716.13;;;9.44;50.71
48926;BME280;39838;59.938;30.642;2023-04-29T12:29:24;100714.75;;;9.95;50.17
48926;BME280;39838;59.938;30.642;2023-04-29T12:31:52;100719.41;;;10.52;49.15
48926;BME280;39838;59.938;30.642;2023-04-29T12:34:24;100717.81;;;11.06;48.57
48926;BME280;39838;59.938;30.642;2023-04-29T12:36:54;100708.28;;;11.43;45.94
48926;BME280;39838;59.938;30.642;2023-04-29T12:39:22;100710.88;;;11.66;45.57
48926;BME280;39838;59.938;30.642;2023-04-29T12:41:54;100715.22;;;11.31;45.75
48926;BME280;39838;59.938;30.642;2023-04-29T12:44:22;100719.56;;;11.48;45.27
48926;BME280;39838;59.938;30.642;2023-04-29T12:46:50;100729.97;;;11.73;44.91
48926;BME280;39838;59.938;30.642;2023-04-29T12:49:18;100724.69;;;12.10;44.55
48926;BME280;39838;59.938;30.642;2023-04-29T12:51:46;100728.81;;;12.69;43.71
48926;BME280;39838;59.938;30.642;2023-04-29T12:54:13;100718.06;;;13.19;42.98
48926;BME280;39838;59.938;30.642;2023-04-29T12:56:40;100722.94;;;13.66;41.99